PAED METAR and TAF weather

Enter ICAO airport designator
Station Type Date Time Source
PAED METAR 2019/08/26 06:56 UTC NOAA

PAED 260656Z AUTO 18009KT 10SM FEW055 OVC080 14/09 A2998 RMK AO2 RAB0559E09DZB09E13RAB29E39DZB39E42 SLP148 P0000 T01440094 $


Station Type Date Time Source
PAED Decoded METAR 2019/08/26 06:56 UTC NOAA

Station name not available
Aug 26, 2019 - 02:56 AM EDT / 2019.08.26 0656 UTC
Wind: from the S (180 degrees) at 10 MPH (9 KT):0
Visibility: 10 mile(s):0
Sky conditions: overcast
Precipitation last hour: A trace
Temperature: 57.9 F (14.4 C)
Dew Point: 48.9 F (9.4 C)
Relative Humidity: 71%
Pressure (altimeter): 29.98 in. Hg (1015 hPa)
ob: PAED 260656Z AUTO 18009KT 10SM FEW055 OVC080 14/09 A2998 RMK AO2 RAB0559E09DZB09E13RAB29E39DZB39E42 SLP148 P0000 T01440094
cycle: 7

Station Type Date Time Source
PAED TAF 2019/08/26 06:21 UTC NOAA

TAF TAF
AMD PAED 260618Z 2606/2709 20006KT 8000 FU BKN060 620603 QNH2991INS
BECMG 2613/2614 VRB06KT 8000 FU BKN060 620603 QNH2998INS
BECMG 2620/2621 24009KT 8000 FU SCT040 QNH3000INS TX19/2701Z TN10/2615Z

Example: see airport list